Terminal Aerodrome Forecast
Issued by NWS

Home | Current Version | Previous Version | Text Only | Print | Product List | Glossary On
Versions: 1 2 3 4 5 6 7 8 9 10 11 12 13 14
000
FTUS44 KTSA 012100 AAB
TAFFYV
TAF AMD
KFYV 012149Z 0122/0218 31012G19KT P6SM OVC008
     FM012300 30015G23KT P6SM OVC015
     FM020000 30013KT P6SM BKN025
     FM020600 32011KT P6SM BKN050
     FM021200 34006KT P6SM SKC=

USA.gov is the U.S. government's official web portal to all federal, state and local government web resources and services.